createdAt,value
2018-11-26T00:00:22.140Z,26.07
2018-11-26T00:02:51.411Z,23.73
2018-11-26T00:05:19.926Z,20.35
2018-11-26T00:07:48.610Z,24.20
2018-11-26T00:10:29.372Z,24.95
2018-11-26T00:12:57.631Z,26.45
2018-11-26T00:15:26.437Z,21.10
2018-11-26T00:17:55.024Z,21.62
2018-11-26T00:20:23.945Z,22.25
2018-11-26T00:22:52.731Z,22.13
2018-11-26T00:25:21.697Z,21.25
2018-11-26T00:27:50.796Z,23.07
2018-11-26T00:30:19.539Z,23.95
2018-11-26T00:32:47.656Z,22.73
2018-11-26T00:35:16.449Z,21.35
2018-11-26T00:37:46.168Z,20.90
2018-11-26T00:40:15.924Z,23.15
2018-11-26T00:42:44.884Z,22.73
2018-11-26T00:45:18.011Z,21.33
2018-11-26T00:47:47.028Z,23.30
2018-11-26T00:50:15.604Z,24.70
2018-11-26T00:52:44.521Z,22.37
2018-11-26T00:55:13.217Z,22.02
2018-11-26T00:57:42.626Z,22.42
2018-11-26T01:00:17.233Z,23.20
2018-11-26T01:02:46.766Z,28.57
2018-11-26T01:05:24.770Z,19.42
2018-11-26T01:07:54.753Z,22.32
2018-11-26T01:10:23.425Z,24.43
2018-11-26T01:12:51.252Z,18.27
2018-11-26T01:15:19.886Z,23.62
2018-11-26T01:17:47.948Z,21.45
2018-11-26T01:20:17.458Z,23.50
2018-11-26T01:22:45.974Z,20.48
2018-11-26T01:25:14.847Z,22.17
2018-11-26T01:27:43.998Z,17.23
2018-11-26T01:30:17.223Z,16.37
2018-11-26T01:32:46.635Z,18.02
2018-11-26T01:35:15.124Z,21.42
2018-11-26T01:37:44.017Z,20.32
2018-11-26T01:40:22.359Z,19.52
2018-11-26T01:42:50.689Z,27.70
2018-11-26T01:45:19.141Z,28.12
2018-11-26T01:47:47.666Z,23.27
2018-11-26T01:50:16.468Z,27.10
2018-11-26T01:52:45.404Z,23.00
2018-11-26T01:55:15.500Z,24.30
2018-11-26T01:57:45.002Z,26.37
2018-11-26T02:00:23.414Z,29.63
2018-11-26T02:02:51.754Z,26.90
2018-11-26T02:05:19.925Z,25.50
2018-11-26T02:07:48.197Z,23.27
2018-11-26T02:10:17.370Z,22.98
2018-11-26T02:12:46.147Z,24.35
2018-11-26T02:15:35.224Z,26.95
2018-11-26T02:18:03.721Z,26.35
2018-11-26T02:20:31.761Z,28.55
2018-11-26T02:22:59.721Z,26.50
2018-11-26T02:25:29.221Z,28.05
2018-11-26T02:27:58.137Z,28.07
2018-11-26T02:30:27.493Z,26.40
2018-11-26T02:32:56.260Z,32.08
2018-11-26T02:35:25.657Z,27.20
2018-11-26T02:37:54.674Z,27.13
2018-11-26T02:40:35.546Z,23.98
2018-11-26T02:43:04.092Z,26.68
2018-11-26T02:45:32.496Z,27.27
2018-11-26T02:48:00.773Z,31.62
2018-11-26T02:50:29.221Z,23.25
2018-11-26T02:52:57.833Z,25.80
2018-11-26T02:55:26.218Z,27.37
2018-11-26T02:57:55.726Z,28.02
2018-11-26T03:00:24.653Z,26.17
2018-11-26T03:02:53.020Z,29.40
2018-11-26T03:05:28.683Z,23.32
2018-11-26T03:07:57.330Z,23.90
2018-11-26T03:10:26.342Z,25.62
2018-11-26T03:12:54.967Z,27.35
2018-11-26T03:15:23.599Z,21.07
2018-11-26T03:17:51.648Z,27.58
2018-11-26T03:20:20.337Z,25.80
2018-11-26T03:22:48.932Z,20.02
2018-11-26T03:25:18.172Z,19.42
2018-11-26T03:27:46.832Z,23.38
2018-11-26T03:30:20.131Z,23.40
2018-11-26T03:32:48.494Z,17.98
2018-11-26T03:35:16.577Z,18.65
2018-11-26T03:37:45.350Z,20.85
2018-11-26T03:40:13.841Z,22.17
2018-11-26T03:42:42.634Z,20.55
2018-11-26T03:45:19.929Z,19.95
2018-11-26T03:47:48.182Z,17.75
2018-11-26T03:50:17.374Z,19.00
2018-11-26T03:52:47.175Z,20.30
2018-11-26T03:55:16.654Z,21.73
2018-11-26T03:57:46.464Z,16.10
2018-11-26T04:00:21.553Z,17.73
2018-11-26T04:02:50.337Z,16.12
2018-11-26T04:05:18.606Z,17.15
2018-11-26T04:07:47.817Z,13.45
2018-11-26T04:10:16.926Z,13.98
2018-11-26T04:12:49.609Z,15.08
2018-11-26T04:15:19.745Z,13.83
2018-11-26T04:17:48.525Z,15.03
2018-11-26T04:20:16.686Z,15.72
2018-11-26T04:22:45.361Z,12.03
2018-11-26T04:25:12.950Z,12.47
2018-11-26T04:27:42.019Z,10.98
2018-11-26T04:30:18.402Z,11.43
2018-11-26T04:32:48.693Z,11.05
2018-11-26T04:35:18.021Z,8.10
2018-11-26T04:37:47.300Z,9.83
2018-11-26T04:40:15.986Z,12.95
2018-11-26T04:42:45.022Z,9.35
2018-11-26T04:45:19.575Z,12.75
2018-11-26T04:47:48.088Z,12.03
2018-11-26T04:50:17.605Z,15.00
2018-11-26T04:52:46.900Z,10.63
2018-11-26T04:55:15.897Z,12.30
2018-11-26T04:57:44.263Z,12.60
2018-11-26T05:00:17.765Z,13.72
2018-11-26T05:02:46.967Z,19.10
2018-11-26T05:05:14.946Z,14.13
2018-11-26T05:07:43.314Z,12.50
2018-11-26T05:10:13.057Z,13.35
2018-11-26T05:12:42.546Z,13.50
2018-11-26T05:15:13.050Z,13.75
2018-11-26T05:17:42.274Z,12.60
2018-11-26T05:20:12.226Z,12.28
2018-11-26T05:22:40.458Z,12.30
2018-11-26T05:25:09.948Z,12.53
2018-11-26T05:27:37.993Z,13.28
2018-11-26T05:30:10.197Z,14.87
2018-11-26T05:32:38.368Z,14.25
2018-11-26T05:35:07.758Z,12.70
2018-11-26T05:37:39.854Z,11.97
2018-11-26T05:40:10.402Z,12.40
2018-11-26T05:42:39.542Z,14.43
2018-11-26T05:45:19.907Z,15.70
2018-11-26T05:47:48.221Z,11.18
2018-11-26T05:50:17.318Z,12.73
2018-11-26T05:52:49.359Z,12.93
2018-11-26T05:55:17.735Z,11.53
2018-11-26T05:57:46.142Z,9.63
2018-11-26T06:00:20.904Z,9.70
2018-11-26T06:02:50.608Z,8.70
2018-11-26T06:05:19.413Z,9.20
2018-11-26T06:07:47.740Z,7.08
2018-11-26T06:10:18.506Z,10.35
2018-11-26T06:12:47.061Z,10.88
2018-11-26T06:15:22.947Z,8.78
2018-11-26T06:17:51.852Z,9.20
2018-11-26T06:20:20.089Z,9.10
2018-11-26T06:22:47.717Z,11.10
2018-11-26T06:25:20.111Z,8.28
2018-11-26T06:27:48.292Z,8.25
2018-11-26T06:30:21.907Z,10.90
2018-11-26T06:32:50.488Z,8.68
2018-11-26T06:35:21.558Z,8.63
2018-11-26T06:37:50.345Z,8.80
2018-11-26T06:40:19.237Z,8.68
2018-11-26T06:42:47.245Z,7.67
2018-11-26T06:45:19.969Z,9.03
2018-11-26T06:47:48.333Z,9.45
2018-11-26T06:50:17.716Z,9.03
2018-11-26T06:52:46.116Z,7.70
2018-11-26T06:55:16.216Z,9.45
2018-11-26T06:57:44.514Z,9.38
2018-11-26T07:00:15.746Z,8.85
2018-11-26T07:02:45.580Z,8.50
2018-11-26T07:05:23.204Z,8.00
2018-11-26T07:07:52.888Z,8.73
2018-11-26T07:10:21.741Z,7.12
2018-11-26T07:12:49.720Z,6.20
2018-11-26T07:15:21.885Z,6.15
2018-11-26T07:17:50.985Z,5.00
2018-11-26T07:20:21.604Z,6.10
2018-11-26T07:22:50.025Z,5.80
2018-11-26T07:25:19.356Z,5.62
2018-11-26T07:27:49.041Z,6.70
2018-11-26T07:30:23.662Z,5.33
2018-11-26T07:32:52.142Z,4.45
2018-11-26T07:35:20.802Z,6.65
2018-11-26T07:37:49.423Z,5.55
2018-11-26T07:40:19.721Z,5.65
2018-11-26T07:43:05.782Z,6.15
2018-11-26T07:45:33.773Z,6.35
2018-11-26T07:48:02.998Z,8.23
2018-11-26T07:50:31.479Z,6.75
2018-11-26T07:52:59.449Z,6.45
2018-11-26T07:55:28.232Z,7.83
2018-11-26T07:57:57.224Z,6.65
2018-11-26T08:00:26.681Z,7.42
2018-11-26T08:02:55.332Z,6.55
2018-11-26T08:05:24.041Z,7.70
2018-11-26T08:07:52.485Z,9.63
2018-11-26T08:10:21.476Z,8.80
2018-11-26T08:12:50.569Z,6.58
2018-11-26T08:15:19.001Z,6.28
2018-11-26T08:17:48.149Z,7.60
2018-11-26T08:20:16.533Z,9.45
2018-11-26T08:22:44.163Z,6.28
2018-11-26T08:25:12.773Z,8.00
2018-11-26T08:27:41.290Z,6.72
2018-11-26T08:30:16.103Z,7.37
2018-11-26T08:32:46.148Z,7.15
2018-11-26T08:35:15.353Z,8.78
2018-11-26T08:37:49.014Z,7.62
2018-11-26T08:40:28.051Z,8.08
2018-11-26T08:43:15.388Z,8.53
2018-11-26T08:45:56.553Z,8.13
2018-11-26T08:48:30.720Z,8.65
2018-11-26T08:50:59.774Z,8.38
2018-11-26T08:53:27.721Z,8.45
2018-11-26T08:55:56.091Z,7.58
2018-11-26T08:58:24.047Z,7.40
2018-11-26T09:00:57.658Z,7.62
2018-11-26T09:03:31.498Z,7.45
2018-11-26T09:06:01.725Z,8.05
2018-11-26T09:08:31.101Z,8.03
2018-11-26T09:10:59.353Z,5.00
2018-11-26T09:13:27.658Z,7.33
2018-11-26T09:15:56.010Z,6.97
2018-11-26T09:18:27.896Z,7.85
2018-11-26T09:20:56.366Z,7.47
2018-11-26T09:23:24.737Z,6.00
2018-11-26T09:25:53.457Z,7.20
2018-11-26T09:28:21.517Z,7.53
2018-11-26T09:30:49.405Z,4.83
2018-11-26T09:33:18.101Z,5.78
2018-11-26T09:35:46.049Z,5.50
2018-11-26T09:38:14.423Z,5.33
2018-11-26T09:40:42.673Z,6.60
2018-11-26T09:43:11.305Z,5.80
2018-11-26T09:45:40.508Z,6.45
2018-11-26T09:48:08.393Z,5.33
2018-11-26T09:50:38.081Z,7.35
2018-11-26T09:53:06.334Z,3.87
2018-11-26T09:55:34.246Z,5.17
2018-11-26T09:58:02.772Z,5.87
2018-11-26T10:00:31.269Z,4.90
2018-11-26T10:02:59.184Z,4.45
2018-11-26T10:05:28.218Z,5.20
2018-11-26T10:07:56.206Z,4.03
2018-11-26T10:10:24.903Z,4.17
2018-11-26T10:12:52.720Z,4.72
2018-11-26T10:15:23.063Z,3.72
2018-11-26T10:17:50.892Z,4.58
2018-11-26T10:20:19.535Z,3.85
2018-11-26T10:22:48.225Z,3.70
2018-11-26T10:25:18.132Z,4.45
2018-11-26T10:27:46.726Z,3.37
2018-11-26T10:30:23.369Z,3.30
2018-11-26T10:32:51.861Z,4.92
2018-11-26T10:35:21.222Z,4.47
2018-11-26T10:37:49.971Z,4.22
2018-11-26T10:40:21.310Z,4.10
2018-11-26T10:42:51.133Z,5.15
2018-11-26T10:45:24.541Z,4.03
2018-11-26T10:47:53.108Z,5.60
2018-11-26T10:50:22.922Z,3.98
2018-11-26T10:52:55.602Z,4.35
2018-11-26T10:55:28.838Z,3.98
2018-11-26T10:57:57.486Z,4.58
2018-11-26T11:00:31.005Z,7.22
2018-11-26T11:02:59.253Z,5.85
2018-11-26T11:05:27.538Z,3.00
2018-11-26T11:07:55.993Z,3.98
2018-11-26T11:10:26.655Z,4.08
2018-11-26T11:12:55.129Z,4.47
2018-11-26T11:15:23.419Z,4.87
2018-11-26T11:17:52.315Z,3.98
2018-11-26T11:20:22.429Z,5.37
2018-11-26T11:22:50.697Z,3.15
2018-11-26T11:25:19.992Z,2.70
2018-11-26T11:27:49.035Z,4.67
2018-11-26T11:30:19.466Z,3.20
2018-11-26T11:32:47.486Z,3.52
2018-11-26T11:35:15.430Z,3.15
2018-11-26T11:37:44.348Z,2.40
2018-11-26T11:40:13.451Z,2.90
2018-11-26T11:42:41.935Z,2.67
2018-11-26T11:45:10.542Z,2.60
2018-11-26T11:47:38.795Z,4.22
2018-11-26T11:50:12.911Z,2.83
2018-11-26T11:52:40.952Z,3.05
2018-11-26T11:55:12.582Z,3.17
2018-11-26T11:57:41.555Z,2.90
2018-11-26T12:00:19.435Z,2.75
2018-11-26T12:02:48.519Z,2.90
2018-11-26T12:05:16.474Z,3.72
2018-11-26T12:07:44.494Z,3.30
2018-11-26T12:10:12.295Z,2.98
2018-11-26T12:12:40.963Z,2.90
2018-11-26T12:15:11.052Z,3.87
2018-11-26T12:17:38.672Z,2.98
2018-11-26T12:20:09.165Z,2.75
2018-11-26T12:22:37.318Z,4.80
2018-11-26T12:25:06.580Z,3.25
2018-11-26T12:27:35.350Z,2.87
2018-11-26T12:30:03.694Z,3.17
2018-11-26T12:32:32.551Z,2.12
2018-11-26T12:35:00.925Z,4.65
2018-11-26T12:37:29.822Z,3.08
2018-11-26T12:39:57.878Z,2.30
2018-11-26T12:42:27.558Z,6.30
2018-11-26T12:44:56.101Z,2.80
2018-11-26T12:47:25.198Z,2.25
2018-11-26T12:49:54.212Z,2.52
2018-11-26T12:52:22.411Z,3.10
2018-11-26T12:54:50.999Z,3.12
2018-11-26T12:57:19.829Z,2.72
2018-11-26T12:59:47.883Z,1.60
2018-11-26T13:02:16.847Z,2.37
2018-11-26T13:04:45.146Z,1.52
2018-11-26T13:07:13.125Z,1.65
2018-11-26T13:09:41.611Z,1.80
2018-11-26T13:12:09.558Z,2.65
2018-11-26T13:14:38.054Z,2.10
2018-11-26T13:17:07.127Z,2.50
2018-11-26T13:19:35.826Z,2.20
2018-11-26T13:22:03.448Z,3.10
2018-11-26T13:24:31.975Z,2.83
2018-11-26T13:27:00.369Z,2.77
2018-11-26T13:29:29.337Z,2.60
2018-11-26T13:31:58.554Z,2.70
2018-11-26T13:34:27.566Z,3.12
2018-11-26T13:36:56.028Z,2.90
2018-11-26T13:39:25.018Z,3.25
2018-11-26T13:41:53.427Z,3.83
2018-11-26T13:44:21.693Z,4.00
2018-11-26T13:46:50.278Z,3.45
2018-11-26T13:49:18.885Z,3.20
2018-11-26T13:51:47.001Z,3.20
2018-11-26T13:54:15.055Z,3.45
2018-11-26T13:56:43.459Z,4.03
2018-11-26T13:59:11.922Z,4.00
2018-11-26T14:01:39.910Z,4.17
2018-11-26T14:04:08.227Z,3.12
2018-11-26T14:06:36.412Z,3.52
2018-11-26T14:09:07.483Z,2.75
2018-11-26T14:11:35.542Z,2.83
2018-11-26T14:14:04.186Z,3.15
2018-11-26T14:16:33.087Z,3.72
2018-11-26T14:19:01.034Z,3.40
2018-11-26T14:21:30.151Z,4.20
2018-11-26T14:23:58.587Z,3.83
2018-11-26T14:26:26.478Z,3.95
2018-11-26T14:28:55.287Z,2.87
2018-11-26T14:31:23.983Z,6.60
2018-11-26T14:33:52.450Z,3.00
2018-11-26T14:36:20.343Z,3.83
2018-11-26T14:38:48.317Z,3.62
2018-11-26T14:41:16.770Z,3.12
2018-11-26T14:43:45.121Z,3.00
2018-11-26T14:46:13.775Z,3.20
2018-11-26T14:48:42.259Z,3.20
2018-11-26T14:51:11.106Z,3.80
2018-11-26T14:53:39.792Z,3.33
2018-11-26T14:56:08.179Z,3.47
2018-11-26T14:58:37.615Z,3.75
2018-11-26T15:01:05.763Z,3.22
2018-11-26T15:03:34.095Z,3.40
2018-11-26T15:06:02.691Z,3.70
2018-11-26T15:08:30.906Z,3.00
2018-11-26T15:10:59.142Z,2.98
2018-11-26T15:13:27.551Z,3.80
2018-11-26T15:15:55.903Z,2.70
2018-11-26T15:18:23.885Z,3.22
2018-11-26T15:20:52.563Z,5.03
2018-11-26T15:23:20.661Z,3.95
2018-11-26T15:25:49.014Z,5.08
2018-11-26T15:28:17.423Z,4.00
2018-11-26T15:30:46.226Z,3.67
2018-11-26T15:33:14.566Z,3.40
2018-11-26T15:35:44.187Z,5.03
2018-11-26T15:38:12.998Z,4.33
2018-11-26T15:40:42.495Z,3.40
2018-11-26T15:43:10.818Z,4.12
2018-11-26T15:45:39.406Z,4.05
2018-11-26T15:48:10.205Z,3.83
2018-11-26T15:50:38.242Z,2.98
2018-11-26T15:53:07.082Z,2.52
2018-11-26T15:55:35.536Z,3.17
2018-11-26T15:58:03.819Z,2.87
2018-11-26T16:00:32.194Z,2.55
2018-11-26T16:03:00.924Z,3.12
2018-11-26T16:05:31.262Z,3.40
2018-11-26T16:08:05.831Z,2.50
2018-11-26T16:10:33.635Z,2.90
2018-11-26T16:13:03.370Z,3.33
2018-11-26T16:15:36.394Z,2.37
2018-11-26T16:18:06.864Z,2.37
2018-11-26T16:20:35.219Z,1.80
2018-11-26T16:23:04.047Z,2.60
2018-11-26T16:25:32.427Z,1.87
2018-11-26T16:28:01.629Z,2.25
2018-11-26T16:30:31.288Z,7.47
2018-11-26T16:32:59.631Z,2.17
2018-11-26T16:35:28.829Z,1.82
2018-11-26T16:37:57.218Z,1.65
2018-11-26T16:40:25.213Z,1.90
2018-11-26T16:42:53.673Z,2.27
2018-11-26T16:45:27.113Z,2.05
2018-11-26T16:47:55.603Z,2.47
2018-11-26T16:50:30.182Z,1.95
2018-11-26T16:53:00.452Z,2.40
2018-11-26T16:55:28.766Z,2.33
2018-11-26T16:57:57.681Z,2.35
2018-11-26T17:00:29.178Z,2.30
2018-11-26T17:02:58.492Z,1.47
2018-11-26T17:05:35.700Z,1.72
2018-11-26T17:08:03.538Z,2.08
2018-11-26T17:10:31.656Z,1.82
2018-11-26T17:13:00.496Z,3.47
2018-11-26T17:15:28.841Z,2.30
2018-11-26T17:17:57.002Z,2.02
2018-11-26T17:20:26.494Z,1.98
2018-11-26T17:22:55.006Z,2.20
2018-11-26T17:25:23.391Z,2.10
2018-11-26T17:27:53.745Z,3.02
2018-11-26T17:30:26.995Z,2.02
2018-11-26T17:32:56.947Z,2.20
2018-11-26T17:35:27.857Z,2.70
2018-11-26T17:37:55.901Z,2.02
2018-11-26T17:40:24.407Z,2.12
2018-11-26T17:42:53.200Z,1.92
2018-11-26T17:45:21.719Z,3.08
2018-11-26T17:47:53.099Z,2.15
2018-11-26T17:50:22.455Z,2.75
2018-11-26T17:52:50.606Z,2.55
2018-11-26T17:55:19.495Z,2.98
2018-11-26T17:57:47.952Z,2.60
2018-11-26T18:00:21.035Z,3.00
2018-11-26T18:02:49.342Z,2.40
2018-11-26T18:05:20.429Z,2.37
2018-11-26T18:07:55.539Z,3.05
2018-11-26T18:10:23.178Z,2.40
2018-11-26T18:12:53.498Z,2.40
2018-11-26T18:15:21.803Z,2.67
2018-11-26T18:17:50.126Z,2.60
2018-11-26T18:20:19.000Z,4.35
2018-11-26T18:22:49.407Z,4.10
2018-11-26T18:25:18.174Z,3.90
2018-11-26T18:27:48.875Z,2.90
2018-11-26T18:30:18.386Z,4.75
2018-11-26T18:32:47.278Z,3.87
2018-11-26T18:35:14.883Z,2.95
2018-11-26T18:37:43.361Z,3.75
2018-11-26T18:40:14.163Z,4.25
2018-11-26T18:42:42.663Z,5.33
2018-11-26T18:45:12.792Z,3.70
2018-11-26T18:47:42.400Z,4.25
2018-11-26T18:50:11.990Z,3.02
2018-11-26T18:52:39.888Z,3.47
2018-11-26T18:55:09.038Z,3.47
2018-11-26T18:57:38.062Z,3.70
2018-11-26T19:00:13.476Z,3.30
2018-11-26T19:02:42.227Z,3.90
2018-11-26T19:05:12.491Z,3.00
2018-11-26T19:07:40.687Z,3.77
2018-11-26T19:10:11.637Z,3.90
2018-11-26T19:12:39.776Z,3.47
2018-11-26T19:15:12.694Z,5.10
2018-11-26T19:17:41.567Z,3.50
2018-11-26T19:20:12.498Z,3.75
2018-11-26T19:22:41.560Z,3.50
2018-11-26T19:25:11.776Z,3.80
2018-11-26T19:27:40.378Z,3.70
2018-11-26T19:30:13.443Z,3.50
2018-11-26T19:32:42.167Z,2.87
2018-11-26T19:35:11.990Z,4.10
2018-11-26T19:37:41.315Z,3.10
2018-11-26T19:40:13.479Z,4.22
2018-11-26T19:42:42.439Z,3.40
2018-11-26T19:45:17.412Z,4.17
2018-11-26T19:47:45.665Z,3.60
2018-11-26T19:50:17.852Z,4.00
2018-11-26T19:52:46.553Z,4.42
2018-11-26T19:55:16.342Z,4.35
2018-11-26T19:57:45.742Z,3.77
2018-11-26T20:00:16.063Z,3.37
2018-11-26T20:02:46.142Z,3.95
2018-11-26T20:05:25.934Z,4.03
2018-11-26T20:07:54.816Z,4.92
2018-11-26T20:10:23.464Z,3.45
2018-11-26T20:12:52.372Z,3.50
2018-11-26T20:15:25.098Z,4.78
2018-11-26T20:17:58.932Z,3.30
2018-11-26T20:20:23.696Z,4.00
2018-11-26T20:22:53.798Z,3.92
2018-11-26T20:25:22.106Z,4.40
2018-11-26T20:27:50.923Z,4.42
2018-11-26T20:30:22.059Z,3.70
2018-11-26T20:32:50.616Z,3.72
2018-11-26T20:35:18.516Z,3.50
2018-11-26T20:37:46.695Z,3.58
2018-11-26T20:40:15.246Z,3.95
2018-11-26T20:42:47.627Z,3.58
2018-11-26T20:45:17.339Z,3.90
2018-11-26T20:47:47.209Z,5.42
2018-11-26T20:50:20.627Z,3.62
2018-11-26T20:52:49.311Z,4.20
2018-11-26T20:55:18.731Z,3.85
2018-11-26T20:57:49.120Z,3.50
2018-11-26T21:00:18.951Z,4.10
2018-11-26T21:02:49.038Z,4.17
2018-11-26T21:05:18.334Z,4.33
2018-11-26T21:07:46.670Z,3.77
2018-11-26T21:10:16.429Z,5.08
2018-11-26T21:12:45.900Z,3.30
2018-11-26T21:15:15.699Z,3.95
2018-11-26T21:17:47.606Z,4.22
2018-11-26T21:20:22.648Z,5.85
2018-11-26T21:22:54.360Z,4.53
2018-11-26T21:25:22.706Z,4.50
2018-11-26T21:27:50.655Z,4.17
2018-11-26T21:30:19.295Z,5.05
2018-11-26T21:32:47.634Z,5.10
2018-11-26T21:35:18.847Z,4.05
2018-11-26T21:37:49.471Z,5.05
2018-11-26T21:40:20.626Z,5.67
2018-11-26T21:42:50.943Z,4.65
2018-11-26T21:45:31.362Z,4.55
2018-11-26T21:47:58.995Z,5.08
2018-11-26T21:50:29.844Z,5.30
2018-11-26T21:52:58.099Z,5.10
2018-11-26T21:55:30.487Z,6.65
2018-11-26T21:58:00.215Z,5.40
2018-11-26T22:00:31.334Z,4.85
2018-11-26T22:03:05.071Z,5.30
2018-11-26T22:05:33.122Z,6.90
2018-11-26T22:08:01.451Z,4.45
2018-11-26T22:10:29.354Z,7.25
2018-11-26T22:12:57.942Z,7.12
2018-11-26T22:15:33.304Z,5.00
2018-11-26T22:18:01.650Z,6.05
2018-11-26T22:20:31.145Z,5.15
2018-11-26T22:22:59.230Z,5.25
2018-11-26T22:25:27.826Z,5.35
2018-11-26T22:27:55.796Z,6.25
2018-11-26T22:30:30.396Z,5.53
2018-11-26T22:32:58.392Z,5.35
2018-11-26T22:35:26.904Z,4.40
2018-11-26T22:37:55.248Z,4.97
2018-11-26T22:40:25.656Z,5.15
2018-11-26T22:42:54.631Z,4.80
2018-11-26T22:45:32.838Z,5.12
2018-11-26T22:48:11.378Z,4.87
2018-11-26T22:50:43.235Z,5.15
2018-11-26T22:53:11.872Z,4.55
2018-11-26T22:55:40.955Z,4.97
2018-11-26T22:58:11.789Z,5.10
2018-11-26T23:00:47.855Z,5.35
2018-11-26T23:03:17.022Z,4.37
2018-11-26T23:05:46.286Z,5.55
2018-11-26T23:08:14.182Z,8.85
2018-11-26T23:10:54.119Z,9.43
2018-11-26T23:13:22.326Z,5.58
2018-11-26T23:15:51.387Z,5.53
2018-11-26T23:18:20.152Z,4.65
2018-11-26T23:20:48.962Z,4.37
2018-11-26T23:23:17.546Z,5.35
2018-11-26T23:25:45.577Z,4.45
2018-11-26T23:28:14.822Z,4.70
2018-11-26T23:30:44.148Z,6.05
2018-11-26T23:33:12.602Z,5.97
2018-11-26T23:35:41.706Z,5.28
2018-11-26T23:38:10.705Z,5.62
2018-11-26T23:40:39.543Z,6.95
2018-11-26T23:43:07.437Z,6.30
2018-11-26T23:45:35.830Z,6.80
2018-11-26T23:48:05.160Z,7.28
2018-11-26T23:50:33.109Z,9.18
2018-11-26T23:53:01.312Z,7.22
2018-11-26T23:55:30.098Z,8.98
2018-11-26T23:57:59.062Z,7.72
